sensor_id;sensor_type;location;lat;lon;timestamp;pressure;altitude;pressure_sealevel;temperature;humidity
78485;BME280;67773;50.806;8.776;2024-02-21T00:00:28;100438.72;;;7.06;100.00
78485;BME280;67773;50.806;8.776;2024-02-21T00:02:53;100429.97;;;7.04;100.00
78485;BME280;67773;50.806;8.776;2024-02-21T00:05:19;100437.72;;;7.12;100.00
78485;BME280;67773;50.806;8.776;2024-02-21T00:07:44;100431.34;;;7.20;100.00
78485;BME280;67773;50.806;8.776;2024-02-21T00:10:09;100423.78;;;7.05;100.00
78485;BME280;67773;50.806;8.776;2024-02-21T00:12:34;100427.84;;;7.18;100.00
78485;BME280;67773;50.806;8.776;2024-02-21T00:15:00;100423.44;;;7.19;100.00
78485;BME280;67773;50.806;8.776;2024-02-21T00:17:25;100411.94;;;7.21;100.00
78485;BME280;67773;50.806;8.776;2024-02-21T00:19:51;100414.91;;;7.08;100.00
78485;BME280;67773;50.806;8.776;2024-02-21T00:22:16;100407.66;;;7.16;100.00
78485;BME280;67773;50.806;8.776;2024-02-21T00:24:42;100403.38;;;7.12;100.00
78485;BME280;67773;50.806;8.776;2024-02-21T00:27:07;100392.00;;;7.08;100.00
78485;BME280;67773;50.806;8.776;2024-02-21T00:29:32;100387.38;;;7.19;100.00
78485;BME280;67773;50.806;8.776;2024-02-21T00:31:59;100398.69;;;7.23;100.00
78485;BME280;67773;50.806;8.776;2024-02-21T00:34:24;100397.91;;;7.19;100.00
78485;BME280;67773;50.806;8.776;2024-02-21T00:36:50;100405.34;;;7.38;100.00
78485;BME280;67773;50.806;8.776;2024-02-21T00:39:15;100394.59;;;7.11;100.00
78485;BME280;67773;50.806;8.776;2024-02-21T00:41:40;100390.22;;;7.10;100.00
78485;BME280;67773;50.806;8.776;2024-02-21T00:44:06;100396.69;;;6.97;100.00
78485;BME280;67773;50.806;8.776;2024-02-21T00:46:31;100388.63;;;7.03;100.00
78485;BME280;67773;50.806;8.776;2024-02-21T00:48:56;100383.50;;;6.97;100.00
78485;BME280;67773;50.806;8.776;2024-02-21T00:51:22;100383.31;;;7.05;100.00
78485;BME280;67773;50.806;8.776;2024-02-21T00:53:47;100401.75;;;7.06;100.00
78485;BME280;67773;50.806;8.776;2024-02-21T00:56:12;100408.13;;;6.99;100.00
78485;BME280;67773;50.806;8.776;2024-02-21T00:58:38;100401.69;;;7.09;100.00
78485;BME280;67773;50.806;8.776;2024-02-21T01:01:03;100392.00;;;7.08;100.00
78485;BME280;67773;50.806;8.776;2024-02-21T01:03:28;100399.38;;;6.95;100.00
78485;BME280;67773;50.806;8.776;2024-02-21T01:05:53;100400.03;;;7.05;100.00
78485;BME280;67773;50.806;8.776;2024-02-21T01:08:19;100397.28;;;7.10;100.00
78485;BME280;67773;50.806;8.776;2024-02-21T01:10:44;100393.16;;;6.98;100.00
78485;BME280;67773;50.806;8.776;2024-02-21T01:13:09;100397.28;;;7.08;100.00
78485;BME280;67773;50.806;8.776;2024-02-21T01:15:35;100390.31;;;7.06;100.00
78485;BME280;67773;50.806;8.776;2024-02-21T01:18:01;100378.81;;;7.08;100.00
78485;BME280;67773;50.806;8.776;2024-02-21T01:20:26;100372.25;;;7.24;100.00
78485;BME280;67773;50.806;8.776;2024-02-21T01:22:51;100375.94;;;7.17;100.00
78485;BME280;67773;50.806;8.776;2024-02-21T01:25:17;100362.69;;;7.19;100.00
78485;BME280;67773;50.806;8.776;2024-02-21T01:27:42;100367.06;;;7.21;100.00
78485;BME280;67773;50.806;8.776;2024-02-21T01:30:08;100351.44;;;7.12;100.00
78485;BME280;67773;50.806;8.776;2024-02-21T01:32:33;100350.69;;;7.07;100.00
78485;BME280;67773;50.806;8.776;2024-02-21T01:34:59;100345.41;;;7.07;100.00
78485;BME280;67773;50.806;8.776;2024-02-21T01:37:24;100344.75;;;6.99;100.00
78485;BME280;67773;50.806;8.776;2024-02-21T01:39:50;100359.84;;;6.94;100.00
78485;BME280;67773;50.806;8.776;2024-02-21T01:42:15;100358.75;;;7.03;100.00
78485;BME280;67773;50.806;8.776;2024-02-21T01:44:41;100349.81;;;7.07;100.00
78485;BME280;67773;50.806;8.776;2024-02-21T01:47:06;100346.38;;;7.05;100.00
78485;BME280;67773;50.806;8.776;2024-02-21T01:49:32;100347.13;;;7.08;100.00
78485;BME280;67773;50.806;8.776;2024-02-21T01:51:58;100345.81;;;7.26;100.00
78485;BME280;67773;50.806;8.776;2024-02-21T01:54:24;100349.25;;;7.28;100.00
78485;BME280;67773;50.806;8.776;2024-02-21T01:56:50;100335.25;;;7.26;100.00
78485;BME280;67773;50.806;8.776;2024-02-21T01:59:16;100329.28;;;7.19;100.00
78485;BME280;67773;50.806;8.776;2024-02-21T02:01:42;100328.44;;;7.17;100.00
78485;BME280;67773;50.806;8.776;2024-02-21T02:04:08;100325.09;;;7.11;100.00
78485;BME280;67773;50.806;8.776;2024-02-21T02:06:34;100314.25;;;7.21;100.00
78485;BME280;67773;50.806;8.776;2024-02-21T02:08:59;100313.00;;;7.02;100.00
78485;BME280;67773;50.806;8.776;2024-02-21T02:11:25;100310.28;;;7.05;100.00
78485;BME280;67773;50.806;8.776;2024-02-21T02:13:50;100301.72;;;6.95;100.00
78485;BME280;67773;50.806;8.776;2024-02-21T02:16:15;100304.91;;;7.10;100.00
78485;BME280;67773;50.806;8.776;2024-02-21T02:18:41;100296.13;;;7.08;100.00
78485;BME280;67773;50.806;8.776;2024-02-21T02:21:12;100288.44;;;7.00;100.00
78485;BME280;67773;50.806;8.776;2024-02-21T02:23:39;100279.66;;;6.98;100.00
78485;BME280;67773;50.806;8.776;2024-02-21T02:26:05;100271.25;;;7.16;100.00
78485;BME280;67773;50.806;8.776;2024-02-21T02:28:32;100276.78;;;7.07;100.00
78485;BME280;67773;50.806;8.776;2024-02-21T02:30:57;100274.00;;;7.13;100.00
78485;BME280;67773;50.806;8.776;2024-02-21T02:33:23;100275.38;;;6.94;100.00
78485;BME280;67773;50.806;8.776;2024-02-21T02:35:48;100272.69;;;6.95;100.00
78485;BME280;67773;50.806;8.776;2024-02-21T02:38:14;100269.47;;;6.84;100.00
78485;BME280;67773;50.806;8.776;2024-02-21T02:40:40;100263.19;;;6.90;100.00
78485;BME280;67773;50.806;8.776;2024-02-21T02:43:06;100256.47;;;6.78;100.00
78485;BME280;67773;50.806;8.776;2024-02-21T02:45:32;100251.06;;;6.83;100.00
78485;BME280;67773;50.806;8.776;2024-02-21T02:47:57;100257.25;;;6.82;100.00
78485;BME280;67773;50.806;8.776;2024-02-21T02:50:24;100247.22;;;6.94;100.00
78485;BME280;67773;50.806;8.776;2024-02-21T02:52:49;100246.59;;;6.85;100.00
78485;BME280;67773;50.806;8.776;2024-02-21T02:55:15;100242.91;;;6.92;100.00
78485;BME280;67773;50.806;8.776;2024-02-21T02:57:40;100235.97;;;6.88;100.00
78485;BME280;67773;50.806;8.776;2024-02-21T03:00:10;100229.94;;;6.83;100.00
78485;BME280;67773;50.806;8.776;2024-02-21T03:02:37;100229.56;;;6.97;100.00
78485;BME280;67773;50.806;8.776;2024-02-21T03:05:12;100226.00;;;6.99;100.00
78485;BME280;67773;50.806;8.776;2024-02-21T03:07:38;100226.25;;;6.90;100.00
78485;BME280;67773;50.806;8.776;2024-02-21T03:10:04;100228.75;;;6.94;100.00
78485;BME280;67773;50.806;8.776;2024-02-21T03:12:29;100232.69;;;6.80;100.00
78485;BME280;67773;50.806;8.776;2024-02-21T03:14:55;100218.81;;;6.72;100.00
78485;BME280;67773;50.806;8.776;2024-02-21T03:17:21;100217.50;;;6.88;100.00
78485;BME280;67773;50.806;8.776;2024-02-21T03:19:46;100217.75;;;6.79;100.00
78485;BME280;67773;50.806;8.776;2024-02-21T03:22:11;100210.69;;;6.79;100.00
78485;BME280;67773;50.806;8.776;2024-02-21T03:24:36;100212.78;;;6.66;100.00
78485;BME280;67773;50.806;8.776;2024-02-21T03:27:02;100211.97;;;6.64;100.00
78485;BME280;67773;50.806;8.776;2024-02-21T03:29:27;100206.88;;;6.58;100.00
78485;BME280;67773;50.806;8.776;2024-02-21T03:31:52;100194.34;;;6.65;100.00
78485;BME280;67773;50.806;8.776;2024-02-21T03:34:18;100192.69;;;6.62;100.00
78485;BME280;67773;50.806;8.776;2024-02-21T03:36:43;100183.66;;;6.71;100.00
78485;BME280;67773;50.806;8.776;2024-02-21T03:39:08;100171.84;;;6.84;100.00
78485;BME280;67773;50.806;8.776;2024-02-21T03:41:34;100179.19;;;6.73;100.00
78485;BME280;67773;50.806;8.776;2024-02-21T03:44:00;100181.03;;;6.71;100.00
78485;BME280;67773;50.806;8.776;2024-02-21T03:46:25;100184.84;;;6.59;100.00
78485;BME280;67773;50.806;8.776;2024-02-21T03:48:50;100196.25;;;6.60;100.00
78485;BME280;67773;50.806;8.776;2024-02-21T03:51:16;100199.44;;;6.73;100.00
78485;BME280;67773;50.806;8.776;2024-02-21T03:53:41;100200.44;;;6.69;100.00
78485;BME280;67773;50.806;8.776;2024-02-21T03:56:07;100192.72;;;6.93;100.00
78485;BME280;67773;50.806;8.776;2024-02-21T03:58:32;100203.69;;;6.78;100.00
78485;BME280;67773;50.806;8.776;2024-02-21T04:01:01;100207.09;;;6.82;100.00
78485;BME280;67773;50.806;8.776;2024-02-21T04:03:27;100216.09;;;6.75;100.00
78485;BME280;67773;50.806;8.776;2024-02-21T04:05:53;100214.22;;;6.80;100.00
78485;BME280;67773;50.806;8.776;2024-02-21T04:08:18;100215.75;;;6.87;100.00
78485;BME280;67773;50.806;8.776;2024-02-21T04:10:43;100209.00;;;6.77;100.00
78485;BME280;67773;50.806;8.776;2024-02-21T04:13:09;100214.44;;;6.71;100.00
78485;BME280;67773;50.806;8.776;2024-02-21T04:15:35;100224.66;;;6.83;100.00
78485;BME280;67773;50.806;8.776;2024-02-21T04:18:01;100221.94;;;6.86;100.00
78485;BME280;67773;50.806;8.776;2024-02-21T04:20:27;100209.06;;;6.74;100.00
78485;BME280;67773;50.806;8.776;2024-02-21T04:22:52;100211.63;;;6.77;100.00
78485;BME280;67773;50.806;8.776;2024-02-21T04:25:17;100198.44;;;6.77;100.00
78485;BME280;67773;50.806;8.776;2024-02-21T04:27:44;100194.25;;;6.70;100.00
78485;BME280;67773;50.806;8.776;2024-02-21T04:30:09;100174.06;;;6.69;100.00
78485;BME280;67773;50.806;8.776;2024-02-21T04:32:35;100173.31;;;6.63;100.00
78485;BME280;67773;50.806;8.776;2024-02-21T04:35:00;100161.69;;;6.71;100.00
78485;BME280;67773;50.806;8.776;2024-02-21T04:37:26;100161.59;;;6.74;100.00
78485;BME280;67773;50.806;8.776;2024-02-21T04:39:51;100159.19;;;6.64;100.00
78485;BME280;67773;50.806;8.776;2024-02-21T04:42:17;100159.00;;;6.72;100.00
78485;BME280;67773;50.806;8.776;2024-02-21T04:44:42;100173.31;;;6.63;100.00
78485;BME280;67773;50.806;8.776;2024-02-21T04:47:08;100161.97;;;6.60;100.00
78485;BME280;67773;50.806;8.776;2024-02-21T04:49:34;100152.16;;;6.65;100.00
78485;BME280;67773;50.806;8.776;2024-02-21T04:51:59;100138.75;;;6.73;100.00
78485;BME280;67773;50.806;8.776;2024-02-21T04:54:25;100147.69;;;6.69;100.00
78485;BME280;67773;50.806;8.776;2024-02-21T04:56:50;100150.13;;;6.75;100.00
78485;BME280;67773;50.806;8.776;2024-02-21T04:59:16;100140.63;;;6.69;100.00
78485;BME280;67773;50.806;8.776;2024-02-21T05:01:41;100140.75;;;6.64;100.00
78485;BME280;67773;50.806;8.776;2024-02-21T05:04:06;100144.94;;;6.72;100.00
78485;BME280;67773;50.806;8.776;2024-02-21T05:06:37;100153.00;;;6.65;100.00
78485;BME280;67773;50.806;8.776;2024-02-21T05:09:02;100155.75;;;6.62;100.00
78485;BME280;67773;50.806;8.776;2024-02-21T05:11:28;100143.53;;;6.60;100.00
78485;BME280;67773;50.806;8.776;2024-02-21T05:13:53;100138.03;;;6.68;100.00
78485;BME280;67773;50.806;8.776;2024-02-21T05:16:18;100145.03;;;6.69;100.00
78485;BME280;67773;50.806;8.776;2024-02-21T05:18:44;100145.84;;;6.71;100.00
78485;BME280;67773;50.806;8.776;2024-02-21T05:21:09;100160.56;;;6.79;100.00
78485;BME280;67773;50.806;8.776;2024-02-21T05:23:35;100161.94;;;6.61;100.00
78485;BME280;67773;50.806;8.776;2024-02-21T05:26:00;100160.22;;;6.60;100.00
78485;BME280;67773;50.806;8.776;2024-02-21T05:28:25;100157.38;;;6.68;100.00
78485;BME280;67773;50.806;8.776;2024-02-21T05:30:51;100168.88;;;6.64;100.00
78485;BME280;67773;50.806;8.776;2024-02-21T05:33:16;100168.13;;;6.60;100.00
78485;BME280;67773;50.806;8.776;2024-02-21T05:35:49;100174.88;;;6.71;100.00
78485;BME280;67773;50.806;8.776;2024-02-21T05:38:14;100183.59;;;6.73;100.00
78485;BME280;67773;50.806;8.776;2024-02-21T05:40:40;100179.41;;;6.65;100.00
78485;BME280;67773;50.806;8.776;2024-02-21T05:43:07;100169.03;;;6.59;100.00
78485;BME280;67773;50.806;8.776;2024-02-21T05:45:32;100166.97;;;6.71;100.00
78485;BME280;67773;50.806;8.776;2024-02-21T05:47:57;100164.38;;;6.69;100.00
78485;BME280;67773;50.806;8.776;2024-02-21T05:50:23;100161.84;;;6.64;100.00
78485;BME280;67773;50.806;8.776;2024-02-21T05:52:51;100172.47;;;6.61;100.00
78485;BME280;67773;50.806;8.776;2024-02-21T05:55:16;100173.19;;;6.68;100.00
78485;BME280;67773;50.806;8.776;2024-02-21T05:57:42;100165.28;;;6.66;100.00
78485;BME280;67773;50.806;8.776;2024-02-21T06:00:08;100169.81;;;6.63;100.00
78485;BME280;67773;50.806;8.776;2024-02-21T06:02:33;100166.22;;;6.65;100.00
78485;BME280;67773;50.806;8.776;2024-02-21T06:04:58;100153.88;;;6.66;100.00
78485;BME280;67773;50.806;8.776;2024-02-21T06:07:24;100154.06;;;6.60;100.00
78485;BME280;67773;50.806;8.776;2024-02-21T06:09:49;100148.34;;;6.75;100.00
78485;BME280;67773;50.806;8.776;2024-02-21T06:12:14;100141.56;;;6.66;100.00
78485;BME280;67773;50.806;8.776;2024-02-21T06:14:39;100129.16;;;6.70;100.00
78485;BME280;67773;50.806;8.776;2024-02-21T06:17:05;100124.84;;;6.68;100.00
78485;BME280;67773;50.806;8.776;2024-02-21T06:19:30;100122.97;;;6.71;100.00
78485;BME280;67773;50.806;8.776;2024-02-21T06:21:55;100121.09;;;6.75;100.00
78485;BME280;67773;50.806;8.776;2024-02-21T06:24:21;100118.41;;;6.78;100.00
78485;BME280;67773;50.806;8.776;2024-02-21T06:26:47;100121.22;;;6.72;100.00
78485;BME280;67773;50.806;8.776;2024-02-21T06:29:12;100123.09;;;6.66;100.00
78485;BME280;67773;50.806;8.776;2024-02-21T06:31:39;100119.63;;;6.64;100.00
78485;BME280;67773;50.806;8.776;2024-02-21T06:34:05;100125.53;;;6.74;100.00
78485;BME280;67773;50.806;8.776;2024-02-21T06:36:30;100129.25;;;6.67;100.00
78485;BME280;67773;50.806;8.776;2024-02-21T06:38:55;100137.28;;;6.62;100.00
78485;BME280;67773;50.806;8.776;2024-02-21T06:41:21;100136.88;;;6.78;100.00
78485;BME280;67773;50.806;8.776;2024-02-21T06:43:46;100143.69;;;6.85;100.00
78485;BME280;67773;50.806;8.776;2024-02-21T06:46:12;100135.13;;;6.77;100.00
78485;BME280;67773;50.806;8.776;2024-02-21T06:48:37;100128.13;;;6.76;100.00
78485;BME280;67773;50.806;8.776;2024-02-21T06:51:03;100129.97;;;6.72;100.00
78485;BME280;67773;50.806;8.776;2024-02-21T06:53:29;100130.75;;;6.76;100.00
78485;BME280;67773;50.806;8.776;2024-02-21T06:55:54;100128.97;;;6.78;100.00
78485;BME280;67773;50.806;8.776;2024-02-21T06:58:19;100131.72;;;6.73;100.00
78485;BME280;67773;50.806;8.776;2024-02-21T07:00:45;100127.13;;;6.80;100.00
78485;BME280;67773;50.806;8.776;2024-02-21T07:03:10;100124.75;;;6.71;100.00
78485;BME280;67773;50.806;8.776;2024-02-21T07:05:35;100128.00;;;6.80;100.00
78485;BME280;67773;50.806;8.776;2024-02-21T07:08:01;100126.13;;;6.84;100.00
78485;BME280;67773;50.806;8.776;2024-02-21T07:10:27;100123.59;;;6.81;100.00
78485;BME280;67773;50.806;8.776;2024-02-21T07:12:54;100125.38;;;6.80;100.00
78485;BME280;67773;50.806;8.776;2024-02-21T07:15:20;100120.28;;;6.73;100.00
78485;BME280;67773;50.806;8.776;2024-02-21T07:17:45;100111.16;;;6.84;100.00
78485;BME280;67773;50.806;8.776;2024-02-21T07:20:11;100106.69;;;6.88;100.00
78485;BME280;67773;50.806;8.776;2024-02-21T07:22:36;100100.13;;;7.01;100.00
78485;BME280;67773;50.806;8.776;2024-02-21T07:25:01;100100.78;;;7.08;100.00
78485;BME280;67773;50.806;8.776;2024-02-21T07:27:27;100100.50;;;6.87;100.00
78485;BME280;67773;50.806;8.776;2024-02-21T07:29:56;100093.34;;;6.92;100.00
78485;BME280;67773;50.806;8.776;2024-02-21T07:32:21;100096.06;;;6.89;100.00
78485;BME280;67773;50.806;8.776;2024-02-21T07:34:46;100107.25;;;6.98;100.00
78485;BME280;67773;50.806;8.776;2024-02-21T07:37:12;100099.22;;;7.02;100.00
78485;BME280;67773;50.806;8.776;2024-02-21T07:39:37;100092.13;;;7.04;100.00
78485;BME280;67773;50.806;8.776;2024-02-21T07:42:03;100092.81;;;7.11;100.00
78485;BME280;67773;50.806;8.776;2024-02-21T07:44:28;100090.81;;;7.17;100.00
78485;BME280;67773;50.806;8.776;2024-02-21T07:46:53;100090.13;;;7.12;100.00
78485;BME280;67773;50.806;8.776;2024-02-21T07:49:18;100091.25;;;7.04;100.00
78485;BME280;67773;50.806;8.776;2024-02-21T07:51:44;100093.34;;;6.92;100.00
78485;BME280;67773;50.806;8.776;2024-02-21T07:54:09;100095.38;;;6.83;100.00
78485;BME280;67773;50.806;8.776;2024-02-21T07:56:34;100083.81;;;6.88;100.00
78485;BME280;67773;50.806;8.776;2024-02-21T07:59:00;100091.41;;;6.99;100.00
78485;BME280;67773;50.806;8.776;2024-02-21T08:01:25;100091.16;;;7.07;100.00
78485;BME280;67773;50.806;8.776;2024-02-21T08:03:50;100085.28;;;6.97;100.00
78485;BME280;67773;50.806;8.776;2024-02-21T08:06:16;100088.72;;;7.01;100.00
78485;BME280;67773;50.806;8.776;2024-02-21T08:08:41;100078.28;;;6.96;100.00
78485;BME280;67773;50.806;8.776;2024-02-21T08:11:07;100087.59;;;7.08;100.00
78485;BME280;67773;50.806;8.776;2024-02-21T08:13:32;100084.41;;;7.26;100.00
78485;BME280;67773;50.806;8.776;2024-02-21T08:15:57;100082.03;;;7.17;100.00
78485;BME280;67773;50.806;8.776;2024-02-21T08:18:23;100083.97;;;7.12;100.00
78485;BME280;67773;50.806;8.776;2024-02-21T08:20:48;100076.88;;;7.14;100.00
78485;BME280;67773;50.806;8.776;2024-02-21T08:23:16;100070.72;;;7.13;100.00
78485;BME280;67773;50.806;8.776;2024-02-21T08:25:42;100068.31;;;7.06;100.00
78485;BME280;67773;50.806;8.776;2024-02-21T08:28:07;100063.22;;;7.00;100.00
78485;BME280;67773;50.806;8.776;2024-02-21T08:30:33;100060.25;;;7.10;100.00
78485;BME280;67773;50.806;8.776;2024-02-21T08:32:59;100055.47;;;7.23;100.00
78485;BME280;67773;50.806;8.776;2024-02-21T08:35:24;100052.66;;;7.28;100.00
78485;BME280;67773;50.806;8.776;2024-02-21T08:37:49;100043.66;;;7.35;100.00
78485;BME280;67773;50.806;8.776;2024-02-21T08:40:15;100037.75;;;7.27;100.00
78485;BME280;67773;50.806;8.776;2024-02-21T08:42:44;100033.28;;;7.29;100.00
78485;BME280;67773;50.806;8.776;2024-02-21T08:45:10;100034.09;;;7.31;100.00
78485;BME280;67773;50.806;8.776;2024-02-21T08:47:35;100027.47;;;7.45;100.00
78485;BME280;67773;50.806;8.776;2024-02-21T08:50:04;100019.81;;;7.36;100.00
78485;BME280;67773;50.806;8.776;2024-02-21T08:52:31;100014.72;;;7.32;100.00
78485;BME280;67773;50.806;8.776;2024-02-21T08:54:56;100015.22;;;7.43;100.00
78485;BME280;67773;50.806;8.776;2024-02-21T08:57:21;100014.00;;;7.53;100.00
78485;BME280;67773;50.806;8.776;2024-02-21T08:59:47;100009.16;;;7.39;100.00
78485;BME280;67773;50.806;8.776;2024-02-21T09:02:13;100001.78;;;7.50;100.00
78485;BME280;67773;50.806;8.776;2024-02-21T09:04:38;99999.66;;;7.34;100.00
78485;BME280;67773;50.806;8.776;2024-02-21T09:07:04;99996.22;;;7.32;100.00
78485;BME280;67773;50.806;8.776;2024-02-21T09:09:29;99994.72;;;7.49;100.00
78485;BME280;67773;50.806;8.776;2024-02-21T09:11:54;100004.09;;;7.33;100.00
78485;BME280;67773;50.806;8.776;2024-02-21T09:14:23;100001.28;;;7.38;100.00
78485;BME280;67773;50.806;8.776;2024-02-21T09:16:51;99992.25;;;7.45;100.00
78485;BME280;67773;50.806;8.776;2024-02-21T09:19:17;99995.72;;;7.47;100.00
78485;BME280;67773;50.806;8.776;2024-02-21T09:21:43;99988.34;;;7.57;100.00
78485;BME280;67773;50.806;8.776;2024-02-21T09:24:08;99994.13;;;7.68;100.00
78485;BME280;67773;50.806;8.776;2024-02-21T09:26:33;99983.59;;;7.40;100.00
78485;BME280;67773;50.806;8.776;2024-02-21T09:28:59;99988.56;;;7.50;100.00
78485;BME280;67773;50.806;8.776;2024-02-21T09:31:24;99978.28;;;7.68;100.00
78485;BME280;67773;50.806;8.776;2024-02-21T09:33:50;99977.75;;;7.83;100.00
78485;BME280;67773;50.806;8.776;2024-02-21T09:36:15;99969.97;;;7.78;100.00
78485;BME280;67773;50.806;8.776;2024-02-21T09:38:40;99976.00;;;7.57;100.00
78485;BME280;67773;50.806;8.776;2024-02-21T09:41:16;99965.53;;;7.54;100.00
78485;BME280;67773;50.806;8.776;2024-02-21T09:43:42;99970.22;;;7.72;100.00
78485;BME280;67773;50.806;8.776;2024-02-21T09:46:13;99971.13;;;7.71;100.00
78485;BME280;67773;50.806;8.776;2024-02-21T09:51:15;99975.88;;;7.60;100.00
78485;BME280;67773;50.806;8.776;2024-02-21T09:53:42;99970.72;;;8.07;100.00
78485;BME280;67773;50.806;8.776;2024-02-21T09:56:08;99953.69;;;8.16;100.00
78485;BME280;67773;50.806;8.776;2024-02-21T09:58:34;99956.56;;;8.34;100.00
78485;BME280;67773;50.806;8.776;2024-02-21T10:00:59;99958.50;;;8.28;100.00
78485;BME280;67773;50.806;8.776;2024-02-21T10:03:25;99961.44;;;8.45;100.00
78485;BME280;67773;50.806;8.776;2024-02-21T10:05:51;99964.84;;;8.24;100.00
78485;BME280;67773;50.806;8.776;2024-02-21T10:08:16;99960.66;;;8.42;100.00
78485;BME280;67773;50.806;8.776;2024-02-21T10:10:45;99950.53;;;8.29;100.00
78485;BME280;67773;50.806;8.776;2024-02-21T10:13:23;99942.81;;;8.70;100.00
78485;BME280;67773;50.806;8.776;2024-02-21T10:15:59;99928.13;;;9.07;100.00
78485;BME280;67773;50.806;8.776;2024-02-21T10:18:25;99929.69;;;9.33;100.00
78485;BME280;67773;50.806;8.776;2024-02-21T10:21:02;99935.06;;;9.31;100.00
78485;BME280;67773;50.806;8.776;2024-02-21T10:23:29;99916.72;;;9.05;100.00
78485;BME280;67773;50.806;8.776;2024-02-21T10:25:54;99923.72;;;9.07;100.00
78485;BME280;67773;50.806;8.776;2024-02-21T10:28:19;99920.13;;;9.08;100.00
78485;BME280;67773;50.806;8.776;2024-02-21T10:30:51;99909.84;;;9.01;100.00
78485;BME280;67773;50.806;8.776;2024-02-21T10:33:17;99907.31;;;9.19;100.00
78485;BME280;67773;50.806;8.776;2024-02-21T10:35:46;99908.44;;;9.34;99.52
78485;BME280;67773;50.806;8.776;2024-02-21T10:38:12;99918.00;;;9.16;100.00
78485;BME280;67773;50.806;8.776;2024-02-21T10:40:38;99912.63;;;8.98;100.00
78485;BME280;67773;50.806;8.776;2024-02-21T10:43:04;99909.34;;;8.91;100.00
78485;BME280;67773;50.806;8.776;2024-02-21T10:45:31;99906.72;;;8.91;100.00
78485;BME280;67773;50.806;8.776;2024-02-21T10:50:32;99892.53;;;9.14;100.00
78485;BME280;67773;50.806;8.776;2024-02-21T10:53:20;99890.50;;;9.41;100.00
78485;BME280;67773;50.806;8.776;2024-02-21T10:55:58;99884.88;;;9.06;100.00
78485;BME280;67773;50.806;8.776;2024-02-21T10:58:28;99898.16;;;9.26;100.00
78485;BME280;67773;50.806;8.776;2024-02-21T11:00:55;99896.84;;;8.94;100.00
78485;BME280;67773;50.806;8.776;2024-02-21T11:03:21;99893.41;;;8.92;100.00
78485;BME280;67773;50.806;8.776;2024-02-21T11:05:47;99896.09;;;9.13;100.00
78485;BME280;67773;50.806;8.776;2024-02-21T11:08:12;99884.25;;;9.21;100.00
78485;BME280;67773;50.806;8.776;2024-02-21T11:10:38;99876.06;;;9.28;100.00
78485;BME280;67773;50.806;8.776;2024-02-21T11:13:07;99878.25;;;9.18;100.00
78485;BME280;67773;50.806;8.776;2024-02-21T11:15:33;99872.44;;;9.30;100.00
78485;BME280;67773;50.806;8.776;2024-02-21T11:17:58;99876.03;;;8.85;100.00
78485;BME280;67773;50.806;8.776;2024-02-21T11:20:34;99859.41;;;9.04;100.00
78485;BME280;67773;50.806;8.776;2024-02-21T11:23:00;99860.09;;;9.09;100.00
78485;BME280;67773;50.806;8.776;2024-02-21T11:25:29;99848.44;;;9.53;97.13
78485;BME280;67773;50.806;8.776;2024-02-21T11:28:07;99849.50;;;9.09;100.00
78485;BME280;67773;50.806;8.776;2024-02-21T11:30:36;99844.59;;;9.40;99.39
78485;BME280;67773;50.806;8.776;2024-02-21T11:33:03;99825.00;;;9.44;98.05
78485;BME280;67773;50.806;8.776;2024-02-21T11:35:32;99834.91;;;9.80;97.52
78485;BME280;67773;50.806;8.776;2024-02-21T11:38:08;99825.13;;;10.38;92.48
78485;BME280;67773;50.806;8.776;2024-02-21T11:40:34;99810.88;;;10.22;90.76
78485;BME280;67773;50.806;8.776;2024-02-21T11:42:59;99806.66;;;10.17;91.72
78485;BME280;67773;50.806;8.776;2024-02-21T11:45:25;99797.38;;;9.69;93.64
78485;BME280;67773;50.806;8.776;2024-02-21T11:47:51;99791.72;;;9.58;95.48
78485;BME280;67773;50.806;8.776;2024-02-21T11:50:16;99784.47;;;9.42;94.01
78485;BME280;67773;50.806;8.776;2024-02-21T11:52:42;99783.75;;;9.58;95.15
78485;BME280;67773;50.806;8.776;2024-02-21T11:55:07;99770.28;;;9.43;94.31
78485;BME280;67773;50.806;8.776;2024-02-21T11:57:33;99758.13;;;9.19;97.17
78485;BME280;67773;50.806;8.776;2024-02-21T12:00:11;99756.00;;;9.27;98.94
78485;BME280;67773;50.806;8.776;2024-02-21T12:02:37;99753.78;;;9.18;97.56
78485;BME280;67773;50.806;8.776;2024-02-21T12:05:03;99749.91;;;9.05;98.51
78485;BME280;67773;50.806;8.776;2024-02-21T12:07:30;99739.53;;;9.00;98.83
78485;BME280;67773;50.806;8.776;2024-02-21T12:09:59;99733.38;;;9.20;99.88
78485;BME280;67773;50.806;8.776;2024-02-21T12:12:25;99735.88;;;9.23;100.00
78485;BME280;67773;50.806;8.776;2024-02-21T12:14:55;99731.06;;;9.51;99.09
78485;BME280;67773;50.806;8.776;2024-02-21T12:17:21;99731.00;;;9.53;96.52
78485;BME280;67773;50.806;8.776;2024-02-21T12:19:46;99726.97;;;9.44;97.69
78485;BME280;67773;50.806;8.776;2024-02-21T12:22:18;99724.19;;;9.27;97.13
78485;BME280;67773;50.806;8.776;2024-02-21T12:24:44;99712.31;;;9.17;98.72
78485;BME280;67773;50.806;8.776;2024-02-21T12:27:13;99711.97;;;9.24;97.07
78485;BME280;67773;50.806;8.776;2024-02-21T12:29:38;99705.63;;;9.29;97.10
78485;BME280;67773;50.806;8.776;2024-02-21T12:32:03;99705.88;;;9.22;97.28
78485;BME280;67773;50.806;8.776;2024-02-21T12:34:29;99692.66;;;9.41;98.62
78485;BME280;67773;50.806;8.776;2024-02-21T12:36:58;99689.22;;;9.58;96.49
78485;BME280;67773;50.806;8.776;2024-02-21T12:39:23;99689.53;;;9.71;94.92
78485;BME280;67773;50.806;8.776;2024-02-21T12:41:49;99679.38;;;9.98;93.84
78485;BME280;67773;50.806;8.776;2024-02-21T12:44:14;99679.31;;;9.99;90.92
78485;BME280;67773;50.806;8.776;2024-02-21T12:46:41;99695.78;;;9.70;93.25
78485;BME280;67773;50.806;8.776;2024-02-21T12:49:07;99687.16;;;9.65;93.14
78485;BME280;67773;50.806;8.776;2024-02-21T12:51:33;99685.16;;;9.70;93.18
78485;BME280;67773;50.806;8.776;2024-02-21T12:53:59;99689.22;;;9.77;93.36